WXM80 ListenWXM80 Stop

You find our weather info also at:

UK Metoffice

WeatherCloud

Weather Underground

Northeastern Weather Network

AWEKAS

Citizen Weather Observer Program (CWOP)

HAMweather, WeatherForYou, PWS Weather


Weather Underground History page Text

Daily Summary for May 5, 2016 Units:  English    Metric   Both
« Previous Day
Next Day »
Daily Weekly Monthly Yearly Custom
  High: Low: Average:
Temperature: 54.0 °F 46.3 °F 49.8 °F
Dew Point: 49.0 °F 43.6 °F 46.1 °F
Humidity: 92 % 81 % 87 %
Wind Speed: 10.8 mph 1.3 mph 5.8 mph
Wind Gust: 17.3 mph - -
Wind:- - ENE
Pressure: 29.74 in 29.61 in -
Precipitation: 0.00 in    
Historical Graphs
 
 
Tabular Data for May 5, 2016
Time Temperature Dew Point Pressure Wind Wind Speed Wind Gust Humidity Rainfall Rate (Hourly)
00:02 48.0 °F 45.5 °F 29.74 in ENE 7.2 mph 11.5 mph 91 % 0.00 in
00:07 47.9 °F 45.1 °F 29.74 in NE 6.1 mph 13.8 mph 90 % 0.00 in
00:13 47.9 °F 45.4 °F 29.73 in ENE 5.7 mph 10.4 mph 91 % 0.00 in
00:18 47.8 °F 45.3 °F 29.73 in ENE 6.9 mph 10.4 mph 91 % 0.00 in
00:23 47.8 °F 45.3 °F 29.73 in ENE 6.2 mph 10.4 mph 91 % 0.00 in
00:28 47.8 °F 45.3 °F 29.74 in NE 6.7 mph 11.5 mph 91 % 0.00 in
00:33 47.8 °F 45.3 °F 29.74 in NNE 4.1 mph 8.0 mph 91 % 0.00 in
00:38 47.7 °F 45.2 °F 29.74 in ENE 4.5 mph 9.2 mph 91 % 0.00 in
00:43 47.7 °F 45.2 °F 29.73 in NE 4.5 mph 8.1 mph 91 % 0.00 in
00:48 47.6 °F 45.1 °F 29.73 in ENE 5.5 mph 8.1 mph 91 % 0.00 in
00:58 47.5 °F 44.7 °F 29.73 in ENE 6.8 mph 11.5 mph 90 % 0.00 in
01:04 47.5 °F 44.7 °F 29.72 in East 4.6 mph 11.5 mph 90 % 0.00 in
01:09 47.6 °F 44.8 °F 29.72 in ENE 6.8 mph 10.4 mph 90 % 0.00 in
01:14 47.6 °F 45.1 °F 29.72 in North 4.2 mph 9.2 mph 91 % 0.00 in
01:19 47.5 °F 45.0 °F 29.72 in NE 3.9 mph 9.2 mph 91 % 0.00 in
01:24 47.5 °F 45.0 °F 29.72 in ENE 3.1 mph 8.1 mph 91 % 0.00 in
01:29 47.4 °F 44.9 °F 29.72 in ENE 4.1 mph 6.9 mph 91 % 0.00 in
01:34 47.4 °F 44.9 °F 29.72 in North 4.2 mph 9.2 mph 91 % 0.00 in
01:39 47.4 °F 44.9 °F 29.71 in ENE 4.8 mph 9.2 mph 91 % 0.00 in
01:44 47.4 °F 44.9 °F 29.71 in NE 5.3 mph 6.9 mph 91 % 0.00 in
01:49 47.3 °F 44.8 °F 29.70 in ENE 9.0 mph 11.5 mph 91 % 0.00 in
02:00 47.3 °F 44.8 °F 29.70 in ENE 5.1 mph 9.2 mph 91 % 0.00 in
02:05 47.3 °F 44.8 °F 29.70 in ENE 8.4 mph 10.4 mph 91 % 0.00 in
02:10 47.2 °F 44.4 °F 29.70 in ENE 6.1 mph 12.7 mph 90 % 0.00 in
02:15 47.2 °F 44.7 °F 29.71 in East 6.5 mph 9.2 mph 91 % 0.00 in
02:20 47.1 °F 44.3 °F 29.71 in ENE 5.4 mph 12.0 mph 90 % 0.00 in
02:25 47.1 °F 44.3 °F 29.71 in East 7.8 mph 12.7 mph 90 % 0.00 in
02:30 47.1 °F 44.3 °F 29.71 in ENE 9.1 mph 12.7 mph 90 % 0.00 in
02:35 47.2 °F 44.4 °F 29.71 in ENE 9.1 mph 11.5 mph 90 % 0.00 in
02:40 47.2 °F 44.4 °F 29.71 in ENE 7.4 mph 9.2 mph 90 % 0.00 in
02:46 47.2 °F 44.4 °F 29.70 in ENE 7.5 mph 13.8 mph 90 % 0.00 in
02:51 47.2 °F 44.4 °F 29.70 in NNE 7.5 mph 11.5 mph 90 % 0.00 in
02:56 47.1 °F 44.3 °F 29.70 in East 7.8 mph 10.4 mph 90 % 0.00 in
03:01 47.1 °F 44.3 °F 29.70 in ENE 5.4 mph 11.0 mph 90 % 0.00 in
03:06 47.1 °F 44.3 °F 29.69 in East 8.3 mph 11.5 mph 90 % 0.00 in
03:11 47.1 °F 44.3 °F 29.69 in ENE 5.1 mph 11.5 mph 90 % 0.00 in
03:16 47.0 °F 44.2 °F 29.68 in ENE 6.7 mph 11.0 mph 90 % 0.00 in
03:21 47.0 °F 44.2 °F 29.68 in NE 5.0 mph 9.2 mph 90 % 0.00 in
03:26 46.9 °F 44.1 °F 29.69 in NNE 5.4 mph 9.2 mph 90 % 0.00 in
03:37 46.8 °F 44.3 °F 29.68 in NNE 4.9 mph 6.9 mph 91 % 0.00 in
03:42 46.7 °F 44.2 °F 29.69 in ENE 3.9 mph 10.4 mph 91 % 0.00 in
03:47 46.7 °F 43.9 °F 29.68 in ENE 4.2 mph 6.9 mph 90 % 0.00 in
03:52 46.7 °F 44.2 °F 29.68 in NE 4.0 mph 8.1 mph 91 % 0.00 in
03:57 46.6 °F 44.1 °F 29.70 in NNE 5.2 mph 10.4 mph 91 % 0.00 in
04:02 46.7 °F 44.2 °F 29.69 in NE 3.3 mph 5.8 mph 91 % 0.00 in
04:07 46.6 °F 44.1 °F 29.69 in NE 6.5 mph 11.5 mph 91 % 0.00 in
04:12 46.6 °F 44.1 °F 29.68 in North 3.6 mph 9.0 mph 91 % 0.00 in
04:17 46.5 °F 44.0 °F 29.68 in NNE 3.2 mph 5.8 mph 91 % 0.00 in
04:23 46.5 °F 44.0 °F 29.69 in North 3.8 mph 10.4 mph 91 % 0.00 in
04:28 46.4 °F 43.9 °F 29.68 in North 6.2 mph 11.0 mph 91 % 0.00 in
04:33 46.4 °F 43.9 °F 29.69 in NNE 4.4 mph 7.0 mph 91 % 0.00 in
04:38 46.4 °F 44.2 °F 29.69 in NNE 6.9 mph 13.8 mph 92 % 0.00 in
04:43 46.4 °F 43.9 °F 29.69 in NE 7.1 mph 12.7 mph 91 % 0.00 in
04:48 46.3 °F 43.8 °F 29.69 in NE 3.1 mph 5.8 mph 91 % 0.00 in
04:53 46.4 °F 44.2 °F 29.69 in NNE 3.7 mph 6.9 mph 92 % 0.00 in
04:58 46.4 °F 43.9 °F 29.69 in NNE 3.7 mph 8.0 mph 91 % 0.00 in
05:03 46.4 °F 43.9 °F 29.68 in ENE 8.8 mph 12.7 mph 91 % 0.00 in
05:08 46.4 °F 43.6 °F 29.68 in East 6.3 mph 9.2 mph 90 % 0.00 in
05:19 46.5 °F 44.0 °F 29.68 in ENE 4.3 mph 4.6 mph 91 % 0.00 in
05:24 46.6 °F 44.1 °F 29.67 in NNE 6.4 mph 10.4 mph 91 % 0.00 in
05:29 46.5 °F 44.0 °F 29.68 in NNE 3.3 mph 8.1 mph 91 % 0.00 in
05:34 46.5 °F 43.7 °F 29.68 in ENE 8.4 mph 11.0 mph 90 % 0.00 in
05:39 46.6 °F 43.8 °F 29.67 in NE 3.2 mph 5.8 mph 90 % 0.00 in
05:44 46.6 °F 43.8 °F 29.67 in NE 6.3 mph 10.4 mph 90 % 0.00 in
05:49 46.6 °F 43.8 °F 29.68 in ENE 6.1 mph 11.0 mph 90 % 0.00 in
05:54 46.7 °F 43.9 °F 29.68 in NE 3.1 mph 4.6 mph 90 % 0.00 in
05:59 46.7 °F 43.9 °F 29.67 in ENE 5.8 mph 11.5 mph 90 % 0.00 in
06:05 46.7 °F 43.9 °F 29.67 in NNE 3.3 mph 11.5 mph 90 % 0.00 in
06:10 46.7 °F 43.9 °F 29.67 in NNE 4.4 mph 8.1 mph 90 % 0.00 in
06:15 46.7 °F 43.9 °F 29.67 in NE 4.9 mph 16.1 mph 90 % 0.00 in
06:20 46.7 °F 43.9 °F 29.67 in ENE 3.2 mph 6.9 mph 90 % 0.00 in
06:25 46.8 °F 44.0 °F 29.67 in NE 3.4 mph 5.8 mph 90 % 0.00 in
06:30 46.8 °F 44.0 °F 29.68 in ENE 3.2 mph 6.9 mph 90 % 0.00 in
06:35 46.8 °F 44.0 °F 29.67 in NNE 5.1 mph 9.2 mph 90 % 0.00 in
06:40 46.7 °F 43.9 °F 29.68 in NNE 3.8 mph 10.4 mph 90 % 0.00 in
06:45 46.7 °F 43.9 °F 29.68 in NNE 2.8 mph 4.6 mph 90 % 0.00 in
06:50 46.8 °F 44.0 °F 29.68 in ENE 6.2 mph 8.1 mph 90 % 0.00 in
06:56 46.8 °F 44.0 °F 29.68 in ENE 3.7 mph 8.1 mph 90 % 0.00 in
07:01 46.9 °F 44.1 °F 29.69 in NE 3.5 mph 6.9 mph 90 % 0.00 in
07:06 46.9 °F 44.1 °F 29.69 in NE 3.3 mph 8.1 mph 90 % 0.00 in
07:11 46.9 °F 44.1 °F 29.69 in NE 3.5 mph 5.8 mph 90 % 0.00 in
07:16 46.9 °F 44.1 °F 29.68 in NE 3.6 mph 4.6 mph 90 % 0.00 in
07:21 47.0 °F 44.2 °F 29.69 in NNE 3.8 mph 9.2 mph 90 % 0.00 in
07:26 47.0 °F 44.2 °F 29.69 in ENE 7.1 mph 12.0 mph 90 % 0.00 in
07:31 47.1 °F 44.3 °F 29.69 in ENE 6.9 mph 9.2 mph 90 % 0.00 in
07:36 47.1 °F 44.0 °F 29.68 in ENE 5.3 mph 11.5 mph 89 % 0.00 in
07:41 47.1 °F 44.0 °F 29.69 in ENE 5.6 mph 8.1 mph 89 % 0.00 in
07:47 47.1 °F 44.0 °F 29.69 in NE 4.2 mph 11.5 mph 89 % 0.00 in
07:52 47.1 °F 44.0 °F 29.69 in East 8.5 mph 12.7 mph 89 % 0.00 in
07:57 47.2 °F 44.1 °F 29.68 in NE 4.9 mph 11.5 mph 89 % 0.00 in
08:02 47.2 °F 44.1 °F 29.68 in ENE 9.6 mph 12.7 mph 89 % 0.00 in
08:07 47.3 °F 44.2 °F 29.69 in ENE 6.7 mph 11.5 mph 89 % 0.00 in
08:12 47.3 °F 44.2 °F 29.68 in NE 6.7 mph 13.8 mph 89 % 0.00 in
08:17 47.4 °F 44.3 °F 29.68 in NE 3.9 mph 5.8 mph 89 % 0.00 in
08:22 47.5 °F 44.4 °F 29.69 in NNE 4.6 mph 8.1 mph 89 % 0.00 in
08:27 47.5 °F 44.4 °F 29.69 in NNE 3.6 mph 6.0 mph 89 % 0.00 in
08:32 47.6 °F 44.5 °F 29.69 in ENE 8.2 mph 13.8 mph 89 % 0.00 in
08:38 47.6 °F 44.2 °F 29.69 in NE 6.0 mph 6.9 mph 88 % 0.00 in
08:43 47.6 °F 44.2 °F 29.69 in ENE 7.4 mph 11.5 mph 88 % 0.00 in
08:48 47.7 °F 44.3 °F 29.69 in NE 5.4 mph 11.0 mph 88 % 0.00 in
08:53 47.7 °F 44.3 °F 29.69 in East 7.2 mph 11.0 mph 88 % 0.00 in
08:58 47.6 °F 44.2 °F 29.68 in East 10.6 mph 13.8 mph 88 % 0.00 in
09:03 47.6 °F 44.2 °F 29.69 in ENE 9.3 mph 11.5 mph 88 % 0.00 in
09:08 47.7 °F 44.3 °F 29.69 in NE 9.1 mph 14.0 mph 88 % 0.00 in
09:13 47.7 °F 44.3 °F 29.69 in ENE 10.6 mph 13.8 mph 88 % 0.00 in
09:18 47.8 °F 44.4 °F 29.69 in East 5.5 mph 13.8 mph 88 % 0.00 in
09:23 47.8 °F 44.4 °F 29.70 in ENE 7.9 mph 11.5 mph 88 % 0.00 in
09:29 47.9 °F 44.5 °F 29.69 in ENE 7.5 mph 8.1 mph 88 % 0.00 in
09:34 48.0 °F 44.6 °F 29.70 in NE 4.9 mph 10.4 mph 88 % 0.00 in
09:39 48.0 °F 44.3 °F 29.69 in ENE 10.5 mph 16.1 mph 87 % 0.00 in
09:44 48.0 °F 44.3 °F 29.69 in North 4.4 mph 12.7 mph 87 % 0.00 in
09:49 48.2 °F 44.8 °F 29.69 in ENE 4.5 mph 10.0 mph 88 % 0.00 in
09:54 48.2 °F 44.5 °F 29.69 in East 8.5 mph 11.5 mph 87 % 0.00 in
09:59 48.4 °F 44.7 °F 29.69 in NE 6.0 mph 11.5 mph 87 % 0.00 in
10:04 48.5 °F 44.8 °F 29.69 in ENE 7.2 mph 11.5 mph 87 % 0.00 in
10:09 48.6 °F 44.9 °F 29.69 in ENE 6.1 mph 9.2 mph 87 % 0.00 in
10:14 48.6 °F 44.6 °F 29.69 in ENE 6.9 mph 10.4 mph 86 % 0.00 in
10:20 48.7 °F 44.7 °F 29.69 in ENE 4.7 mph 9.0 mph 86 % 0.00 in
10:25 48.8 °F 44.8 °F 29.69 in NE 3.2 mph 8.1 mph 86 % 0.00 in
10:35 49.3 °F 45.6 °F 29.69 in NE 4.0 mph 9.2 mph 87 % 0.00 in
10:40 49.6 °F 45.9 °F 29.68 in ENE 4.4 mph 9.0 mph 87 % 0.00 in
10:45 49.7 °F 45.4 °F 29.68 in ENE 7.4 mph 11.5 mph 85 % 0.00 in
10:50 49.7 °F 45.4 °F 29.68 in NNE 3.7 mph 7.0 mph 85 % 0.00 in
10:55 49.9 °F 45.9 °F 29.69 in NNE 6.4 mph 8.1 mph 86 % 0.00 in
11:00 50.1 °F 46.1 °F 29.69 in NNE 4.1 mph 9.2 mph 86 % 0.00 in
11:05 50.3 °F 46.0 °F 29.68 in NNE 3.8 mph 8.1 mph 85 % 0.00 in
11:11 50.5 °F 46.5 °F 29.69 in North 2.6 mph 5.8 mph 86 % 0.00 in
11:16 50.7 °F 46.4 °F 29.69 in East 3.4 mph 10.4 mph 85 % 0.00 in
11:21 50.8 °F 46.1 °F 29.69 in NE 4.9 mph 8.1 mph 84 % 0.00 in
11:26 50.9 °F 46.2 °F 29.69 in NE 3.2 mph 4.6 mph 84 % 0.00 in
11:31 51.1 °F 46.4 °F 29.69 in NE 3.7 mph 5.8 mph 84 % 0.00 in
11:36 51.2 °F 46.8 °F 29.69 in NE 2.7 mph 8.1 mph 85 % 0.00 in
11:41 51.4 °F 46.7 °F 29.69 in NNE 2.8 mph 5.0 mph 84 % 0.00 in
11:46 51.6 °F 46.9 °F 29.68 in NE 2.9 mph 6.9 mph 84 % 0.00 in
11:51 51.7 °F 46.4 °F 29.68 in North 3.4 mph 10.4 mph 82 % 0.00 in
11:56 51.9 °F 46.9 °F 29.68 in NE 2.0 mph 4.6 mph 83 % 0.00 in
12:02 52.0 °F 46.7 °F 29.68 in East 7.1 mph 13.8 mph 82 % 0.00 in
12:07 51.9 °F 46.9 °F 29.68 in ENE 5.2 mph 9.0 mph 83 % 0.00 in
12:12 51.7 °F 46.4 °F 29.68 in ENE 2.7 mph 10.4 mph 82 % 0.00 in
12:17 51.6 °F 46.3 °F 29.68 in ENE 5.9 mph 9.0 mph 82 % 0.00 in
12:22 51.5 °F 46.5 °F 29.68 in ENE 7.1 mph 10.0 mph 83 % 0.00 in
12:27 51.6 °F 46.9 °F 29.67 in ENE 5.7 mph 10.4 mph 84 % 0.00 in
12:32 51.6 °F 46.6 °F 29.67 in ENE 5.6 mph 11.5 mph 83 % 0.00 in
12:37 51.6 °F 46.9 °F 29.67 in NE 4.4 mph 6.0 mph 84 % 0.00 in
12:42 51.8 °F 47.1 °F 29.67 in NE 3.1 mph 5.8 mph 84 % 0.00 in
12:47 52.1 °F 47.7 °F 29.67 in East 3.5 mph 3.5 mph 85 % 0.00 in
12:53 52.4 °F 47.7 °F 29.66 in NNE 2.2 mph 5.8 mph 84 % 0.00 in
12:58 52.7 °F 48.3 °F 29.66 in ENE 2.6 mph 4.6 mph 85 % 0.00 in
13:03 53.0 °F 48.6 °F 29.66 in ENE 1.8 mph 3.5 mph 85 % 0.00 in
13:13 53.1 °F 47.7 °F 29.66 in ENE 7.0 mph 10.4 mph 82 % 0.00 in
13:18 52.9 °F 47.6 °F 29.66 in NE 5.2 mph 11.5 mph 82 % 0.00 in
13:23 52.8 °F 47.8 °F 29.66 in ENE 6.3 mph 10.4 mph 83 % 0.00 in
13:28 52.9 °F 47.9 °F 29.65 in East 5.0 mph 9.2 mph 83 % 0.00 in
13:33 53.0 °F 48.0 °F 29.65 in NE 6.0 mph 10.0 mph 83 % 0.00 in
13:38 52.9 °F 47.6 °F 29.66 in East 6.7 mph 9.2 mph 82 % 0.00 in
13:44 52.8 °F 47.8 °F 29.66 in ENE 4.5 mph 8.1 mph 83 % 0.00 in
13:49 52.8 °F 47.8 °F 29.66 in ENE 5.0 mph 10.4 mph 83 % 0.00 in
13:54 52.8 °F 47.8 °F 29.66 in ENE 4.8 mph 10.0 mph 83 % 0.00 in
13:59 52.8 °F 47.8 °F 29.66 in ENE 5.7 mph 9.2 mph 83 % 0.00 in
14:04 52.8 °F 47.8 °F 29.66 in NE 3.9 mph 6.9 mph 83 % 0.00 in
14:09 52.8 °F 47.8 °F 29.66 in ENE 5.4 mph 9.2 mph 83 % 0.00 in
14:14 52.7 °F 48.0 °F 29.65 in ENE 6.5 mph 9.2 mph 84 % 0.00 in
14:19 52.8 °F 48.1 °F 29.65 in ENE 5.4 mph 9.2 mph 84 % 0.00 in
14:24 52.8 °F 48.1 °F 29.64 in NE 4.7 mph 9.2 mph 84 % 0.00 in
14:29 53.0 °F 48.6 °F 29.64 in NE 3.2 mph 4.0 mph 85 % 0.00 in
14:35 53.2 °F 48.8 °F 29.63 in ENE 2.4 mph 6.0 mph 85 % 0.00 in
14:40 53.3 °F 48.9 °F 29.63 in North 3.1 mph 7.0 mph 85 % 0.00 in
14:45 53.5 °F 48.8 °F 29.64 in NE 3.5 mph 5.8 mph 84 % 0.00 in
14:55 53.8 °F 48.4 °F 29.64 in NE 4.2 mph 6.9 mph 82 % 0.00 in
15:00 54.0 °F 48.6 °F 29.64 in ENE 3.4 mph 11.5 mph 82 % 0.00 in
15:05 54.0 °F 48.6 °F 29.64 in ENE 3.0 mph 6.9 mph 82 % 0.00 in
15:10 54.0 °F 48.3 °F 29.63 in NE 3.4 mph 6.9 mph 81 % 0.00 in
15:20 53.6 °F 48.2 °F 29.64 in ENE 4.4 mph 8.1 mph 82 % 0.00 in
15:26 53.6 °F 48.6 °F 29.63 in ENE 5.0 mph 9.2 mph 83 % 0.00 in
15:31 53.7 °F 49.0 °F 29.63 in East 2.2 mph 3.5 mph 84 % 0.00 in
15:36 53.7 °F 49.0 °F 29.63 in ENE 2.6 mph 3.5 mph 84 % 0.00 in
15:41 53.7 °F 48.3 °F 29.63 in NE 6.9 mph 11.5 mph 82 % 0.00 in
15:46 53.7 °F 48.3 °F 29.62 in NE 6.6 mph 10.4 mph 82 % 0.00 in
15:51 53.7 °F 48.7 °F 29.62 in East 5.9 mph 11.5 mph 83 % 0.00 in
15:56 53.6 °F 48.6 °F 29.62 in NE 5.9 mph 10.4 mph 83 % 0.00 in
16:01 53.6 °F 48.6 °F 29.62 in NE 5.9 mph 10.4 mph 83 % 0.00 in
16:06 53.5 °F 48.5 °F 29.62 in ENE 7.4 mph 9.2 mph 83 % 0.00 in
16:11 53.5 °F 48.5 °F 29.62 in East 7.6 mph 11.5 mph 83 % 0.00 in
16:17 53.6 °F 48.6 °F 29.62 in NE 7.0 mph 12.7 mph 83 % 0.00 in
16:22 53.6 °F 48.6 °F 29.62 in ENE 7.0 mph 10.4 mph 83 % 0.00 in
16:27 53.5 °F 48.5 °F 29.62 in East 5.7 mph 10.4 mph 83 % 0.00 in
16:32 53.4 °F 48.4 °F 29.62 in ENE 5.5 mph 8.1 mph 83 % 0.00 in
16:37 53.3 °F 48.6 °F 29.62 in NE 4.1 mph 6.9 mph 84 % 0.00 in
16:42 53.3 °F 48.6 °F 29.62 in ENE 7.0 mph 11.5 mph 84 % 0.00 in
16:47 53.2 °F 48.5 °F 29.62 in ENE 6.2 mph 10.4 mph 84 % 0.00 in
16:52 53.0 °F 48.3 °F 29.62 in ENE 6.3 mph 10.4 mph 84 % 0.00 in
17:03 52.8 °F 48.4 °F 29.62 in East 7.1 mph 13.0 mph 85 % 0.00 in
17:08 52.8 °F 48.4 °F 29.62 in ENE 7.5 mph 12.7 mph 85 % 0.00 in
17:13 52.9 °F 48.5 °F 29.62 in ENE 8.2 mph 13.0 mph 85 % 0.00 in
17:18 52.9 °F 48.5 °F 29.62 in ENE 6.9 mph 10.4 mph 85 % 0.00 in
17:23 52.9 °F 48.2 °F 29.62 in ENE 8.5 mph 11.5 mph 84 % 0.00 in
17:28 52.9 °F 48.2 °F 29.61 in East 7.7 mph 11.5 mph 84 % 0.00 in
17:33 52.9 °F 48.5 °F 29.62 in ENE 7.1 mph 9.2 mph 85 % 0.00 in
17:38 52.8 °F 48.1 °F 29.62 in East 8.4 mph 14.0 mph 84 % 0.00 in
17:43 52.7 °F 48.3 °F 29.62 in ENE 6.8 mph 10.4 mph 85 % 0.00 in
17:48 52.5 °F 48.1 °F 29.62 in ENE 8.1 mph 10.4 mph 85 % 0.00 in
17:54 52.4 °F 48.0 °F 29.61 in ENE 10.2 mph 12.0 mph 85 % 0.00 in
17:59 52.3 °F 48.2 °F 29.62 in ENE 8.5 mph 12.7 mph 86 % 0.00 in
18:04 52.1 °F 48.0 °F 29.62 in ENE 6.9 mph 11.5 mph 86 % 0.00 in
18:09 52.1 °F 48.0 °F 29.62 in ENE 8.0 mph 12.7 mph 86 % 0.00 in
18:14 52.1 °F 48.0 °F 29.62 in ENE 7.3 mph 11.5 mph 86 % 0.00 in
18:19 52.1 °F 48.0 °F 29.62 in NE 8.3 mph 12.7 mph 86 % 0.00 in
18:24 52.2 °F 47.8 °F 29.62 in East 7.6 mph 12.7 mph 85 % 0.00 in
18:29 52.2 °F 47.8 °F 29.63 in ENE 6.5 mph 10.4 mph 85 % 0.00 in
18:34 52.2 °F 47.8 °F 29.63 in NE 4.6 mph 8.1 mph 85 % 0.00 in
18:39 52.2 °F 47.8 °F 29.63 in ENE 8.9 mph 11.5 mph 85 % 0.00 in
18:45 52.1 °F 47.7 °F 29.63 in ENE 8.9 mph 12.7 mph 85 % 0.00 in
18:50 51.9 °F 47.5 °F 29.63 in NE 10.8 mph 12.7 mph 85 % 0.00 in
18:55 51.9 °F 47.8 °F 29.63 in ENE 8.0 mph 10.4 mph 86 % 0.00 in
19:00 51.8 °F 47.7 °F 29.63 in NE 8.0 mph 11.5 mph 86 % 0.00 in
19:05 51.8 °F 47.7 °F 29.63 in NE 7.4 mph 13.8 mph 86 % 0.00 in
19:10 51.8 °F 47.7 °F 29.62 in NE 4.8 mph 8.1 mph 86 % 0.00 in
19:15 51.8 °F 48.1 °F 29.63 in NE 3.0 mph 10.4 mph 87 % 0.00 in
19:20 51.8 °F 48.1 °F 29.63 in ENE 4.5 mph 8.1 mph 87 % 0.00 in
19:25 51.8 °F 48.1 °F 29.63 in NE 3.6 mph 8.1 mph 87 % 0.00 in
19:30 51.8 °F 48.1 °F 29.63 in ENE 7.7 mph 10.0 mph 87 % 0.00 in
19:36 51.7 °F 47.6 °F 29.63 in ENE 8.0 mph 11.5 mph 86 % 0.00 in
19:41 51.7 °F 47.6 °F 29.63 in NE 8.9 mph 13.8 mph 86 % 0.00 in
19:46 51.7 °F 47.3 °F 29.64 in ENE 8.4 mph 15.0 mph 85 % 0.00 in
19:51 51.7 °F 47.6 °F 29.64 in East 7.3 mph 10.0 mph 86 % 0.00 in
19:56 51.7 °F 47.6 °F 29.64 in East 8.0 mph 10.4 mph 86 % 0.00 in
20:01 51.7 °F 47.6 °F 29.64 in ENE 9.7 mph 13.0 mph 86 % 0.00 in
20:06 51.6 °F 47.5 °F 29.64 in ENE 10.3 mph 11.5 mph 86 % 0.00 in
20:11 51.6 °F 47.2 °F 29.64 in ENE 9.0 mph 17.3 mph 85 % 0.00 in
20:16 51.5 °F 47.1 °F 29.64 in ENE 9.1 mph 13.8 mph 85 % 0.00 in
20:21 51.5 °F 47.1 °F 29.64 in ENE 9.2 mph 12.7 mph 85 % 0.00 in
20:27 51.4 °F 47.4 °F 29.65 in NE 7.9 mph 10.4 mph 86 % 0.00 in
20:32 51.3 °F 47.3 °F 29.65 in ENE 8.9 mph 14.0 mph 86 % 0.00 in
20:37 51.2 °F 47.2 °F 29.65 in ENE 8.1 mph 13.8 mph 86 % 0.00 in
20:42 51.1 °F 47.4 °F 29.65 in East 9.3 mph 11.5 mph 87 % 0.00 in
20:47 51.0 °F 47.3 °F 29.65 in ENE 9.3 mph 12.7 mph 87 % 0.00 in
20:52 50.9 °F 47.2 °F 29.65 in ENE 9.4 mph 13.0 mph 87 % 0.00 in
20:57 50.8 °F 47.4 °F 29.65 in ENE 8.3 mph 11.5 mph 88 % 0.00 in
21:02 50.7 °F 47.6 °F 29.65 in East 7.9 mph 10.0 mph 89 % 0.00 in
21:07 50.6 °F 47.2 °F 29.65 in ENE 9.1 mph 12.7 mph 88 % 0.00 in
21:12 50.5 °F 47.1 °F 29.66 in NE 8.3 mph 11.5 mph 88 % 0.00 in
21:18 50.5 °F 47.4 °F 29.65 in NE 7.4 mph 9.2 mph 89 % 0.00 in
21:23 50.4 °F 47.3 °F 29.65 in East 8.9 mph 10.4 mph 89 % 0.00 in
21:28 50.4 °F 47.3 °F 29.66 in ENE 9.1 mph 17.3 mph 89 % 0.00 in
21:33 50.4 °F 47.3 °F 29.65 in NE 9.6 mph 13.8 mph 89 % 0.00 in
21:38 50.5 °F 47.1 °F 29.66 in ENE 10.2 mph 13.8 mph 88 % 0.00 in
21:48 50.5 °F 47.1 °F 29.66 in ENE 7.8 mph 10.4 mph 88 % 0.00 in
21:53 50.5 °F 47.1 °F 29.66 in ENE 9.0 mph 11.5 mph 88 % 0.00 in
21:58 50.5 °F 47.1 °F 29.66 in East 7.6 mph 11.5 mph 88 % 0.00 in
22:03 50.5 °F 47.1 °F 29.67 in ENE 6.6 mph 11.5 mph 88 % 0.00 in
22:09 50.5 °F 47.1 °F 29.67 in ENE 5.8 mph 10.4 mph 88 % 0.00 in
22:14 50.5 °F 46.8 °F 29.67 in NE 8.2 mph 11.5 mph 87 % 0.00 in
22:19 50.5 °F 46.8 °F 29.67 in ENE 6.9 mph 9.2 mph 87 % 0.00 in
22:24 50.5 °F 47.1 °F 29.67 in East 8.3 mph 11.5 mph 88 % 0.00 in
22:29 50.5 °F 46.8 °F 29.67 in ENE 7.0 mph 11.5 mph 87 % 0.00 in
22:34 50.5 °F 46.8 °F 29.66 in NE 4.9 mph 8.1 mph 87 % 0.00 in
22:39 50.5 °F 46.8 °F 29.66 in NE 3.0 mph 5.0 mph 87 % 0.00 in
22:49 50.4 °F 46.7 °F 29.67 in NNE 4.8 mph 7.0 mph 87 % 0.00 in
22:54 50.4 °F 46.7 °F 29.66 in NNE 1.7 mph 5.8 mph 87 % 0.00 in
23:00 50.4 °F 46.7 °F 29.67 in NE 2.2 mph 4.6 mph 87 % 0.00 in
23:05 50.4 °F 47.0 °F 29.67 in NE 2.1 mph 3.5 mph 88 % 0.00 in
23:10 50.3 °F 46.6 °F 29.66 in NE 2.1 mph 3.5 mph 87 % 0.00 in
23:15 50.3 °F 46.9 °F 29.66 in NE 1.3 mph 3.5 mph 88 % 0.00 in
23:20 50.3 °F 46.9 °F 29.66 in NE 1.7 mph 3.5 mph 88 % 0.00 in
23:25 50.3 °F 46.9 °F 29.65 in ENE 1.5 mph 3.5 mph 88 % 0.00 in
23:30 50.3 °F 46.9 °F 29.65 in NE 4.3 mph 6.9 mph 88 % 0.00 in
23:35 50.3 °F 46.9 °F 29.66 in ENE 3.5 mph 5.8 mph 88 % 0.00 in
23:40 50.4 °F 47.0 °F 29.66 in ENE 4.3 mph 8.1 mph 88 % 0.00 in
23:45 50.4 °F 47.0 °F 29.67 in ENE 2.2 mph 4.6 mph 88 % 0.00 in
23:51 50.4 °F 47.0 °F 29.67 in ENE 2.3 mph 3.5 mph 88 % 0.00 in
23:56 50.4 °F 47.0 °F 29.66 in ENE 2.0 mph 5.0 mph 88 % 0.00 in
Crab Meadow Weather
Compliments of Weather Underground - 2.75 mb

Script developed by  Jim McMurry - jmcmurry@mwt.net Adapted for the template by  Wim van der Kuil - Leuven-Template.eu

Weather Terms: Flood Watch - Conditions are favorable for flash flooding in and close to the watch area. These watches are issued by the Weather Forecast Office in Upton and are usually for the first 12 to 24 hours of a forecast.